createdAt,value
2022-10-17T00:00:13.398Z,100.00
2022-10-17T00:03:15.194Z,100.00
2022-10-17T00:06:18.059Z,100.00
2022-10-17T00:09:19.706Z,100.00
2022-10-17T00:12:21.536Z,100.00
2022-10-17T00:15:23.734Z,100.00
2022-10-17T00:18:25.579Z,100.00
2022-10-17T00:21:28.610Z,100.00
2022-10-17T00:24:30.720Z,100.00
2022-10-17T00:27:34.817Z,100.00
2022-10-17T00:30:36.373Z,100.00
2022-10-17T00:33:39.259Z,100.00
2022-10-17T00:36:42.348Z,100.00
2022-10-17T00:39:43.944Z,100.00
2022-10-17T00:42:45.699Z,100.00
2022-10-17T00:45:47.390Z,100.00
2022-10-17T00:48:50.043Z,100.00
2022-10-17T00:51:54.460Z,100.00
2022-10-17T00:54:58.048Z,100.00
2022-10-17T00:58:02.052Z,100.00
2022-10-17T01:01:03.801Z,100.00
2022-10-17T01:04:05.620Z,100.00
2022-10-17T01:07:08.836Z,100.00
2022-10-17T01:10:11.090Z,100.00
2022-10-17T01:13:17.572Z,100.00
2022-10-17T01:16:25.653Z,100.00
2022-10-17T01:19:46.330Z,100.00
2022-10-17T01:22:52.697Z,100.00
2022-10-17T01:25:57.389Z,100.00
2022-10-17T01:29:16.203Z,100.00
2022-10-17T01:32:23.525Z,100.00
2022-10-17T01:35:28.326Z,100.00
2022-10-17T01:38:33.601Z,100.00
2022-10-17T01:41:42.849Z,100.00
2022-10-17T01:44:47.813Z,100.00
2022-10-17T01:47:52.417Z,100.00
2022-10-17T01:50:57.220Z,100.00
2022-10-17T01:54:00.951Z,100.00
2022-10-17T01:57:04.506Z,100.00
2022-10-17T02:00:08.447Z,100.00
2022-10-17T02:03:13.748Z,100.00
2022-10-17T02:06:15.345Z,100.00
2022-10-17T02:09:21.259Z,100.00
2022-10-17T02:12:27.949Z,100.00
2022-10-17T02:15:39.755Z,100.00
2022-10-17T02:18:54.751Z,100.00
2022-10-17T02:22:04.355Z,100.00
2022-10-17T02:25:09.664Z,100.00
2022-10-17T02:28:17.940Z,100.00
2022-10-17T02:31:22.778Z,100.00
2022-10-17T02:34:26.792Z,100.00
2022-10-17T02:37:29.532Z,100.00
2022-10-17T02:40:32.085Z,100.00
2022-10-17T02:43:34.543Z,100.00
2022-10-17T02:46:37.441Z,100.00
2022-10-17T02:49:41.969Z,100.00
2022-10-17T02:52:48.855Z,100.00
2022-10-17T02:55:55.185Z,100.00
2022-10-17T02:58:58.966Z,100.00
2022-10-17T03:02:03.446Z,100.00
2022-10-17T03:05:07.228Z,100.00
2022-10-17T03:08:08.850Z,100.00
2022-10-17T03:11:10.388Z,100.00
2022-10-17T03:14:12.039Z,100.00
2022-10-17T03:17:13.605Z,100.00
2022-10-17T03:20:16.765Z,100.00
2022-10-17T03:23:18.643Z,100.00
2022-10-17T03:26:20.283Z,100.00
2022-10-17T03:29:21.995Z,100.00
2022-10-17T03:32:23.673Z,100.00
2022-10-17T03:35:26.802Z,100.00
2022-10-17T03:38:28.452Z,100.00
2022-10-17T03:41:30.056Z,100.00
2022-10-17T03:44:31.621Z,100.00
2022-10-17T03:47:33.267Z,100.00
2022-10-17T03:50:36.418Z,100.00
2022-10-17T03:53:38.096Z,100.00
2022-10-17T03:56:39.844Z,100.00
2022-10-17T03:59:41.370Z,100.00
2022-10-17T04:02:44.937Z,100.00
2022-10-17T04:05:47.826Z,100.00
2022-10-17T04:08:50.721Z,100.00
2022-10-17T04:11:52.511Z,100.00
2022-10-17T04:14:54.711Z,100.00
2022-10-17T04:17:57.270Z,100.00
2022-10-17T04:21:03.184Z,100.00
2022-10-17T04:24:05.236Z,100.00
2022-10-17T04:27:06.997Z,100.00
2022-10-17T04:30:08.962Z,100.00
2022-10-17T04:33:10.634Z,100.00
2022-10-17T04:36:14.457Z,100.00
2022-10-17T04:39:16.372Z,100.00
2022-10-17T04:42:18.084Z,100.00
2022-10-17T04:45:19.553Z,100.00
2022-10-17T04:48:21.240Z,100.00
2022-10-17T04:51:26.527Z,100.00
2022-10-17T04:54:28.332Z,100.00
2022-10-17T04:57:29.925Z,100.00
2022-10-17T05:00:31.516Z,100.00
2022-10-17T05:03:33.558Z,100.00
2022-10-17T05:06:37.886Z,100.00
2022-10-17T05:09:39.563Z,100.00
2022-10-17T05:12:41.215Z,100.00
2022-10-17T05:15:46.261Z,100.00
2022-10-17T05:18:52.700Z,100.00
2022-10-17T05:21:56.195Z,100.00
2022-10-17T05:24:57.802Z,100.00
2022-10-17T05:27:59.521Z,100.00
2022-10-17T05:31:03.039Z,100.00
2022-10-17T05:34:07.048Z,100.00
2022-10-17T05:37:12.160Z,100.00
2022-10-17T05:40:13.796Z,100.00
2022-10-17T05:43:15.261Z,100.00
2022-10-17T05:46:16.873Z,100.00
2022-10-17T05:49:31.954Z,100.00
2022-10-17T05:52:43.909Z,100.00
2022-10-17T05:55:55.112Z,100.00
2022-10-17T05:59:00.705Z,100.00
2022-10-17T06:02:02.754Z,100.00
2022-10-17T06:05:04.451Z,100.00
2022-10-17T06:08:07.290Z,100.00
2022-10-17T06:11:10.269Z,100.00
2022-10-17T06:14:12.357Z,100.00
2022-10-17T06:17:16.274Z,100.00
2022-10-17T06:20:20.637Z,100.00
2022-10-17T06:23:23.591Z,100.00
2022-10-17T06:26:25.051Z,100.00
2022-10-17T06:29:27.658Z,100.00
2022-10-17T06:32:29.424Z,100.00
2022-10-17T06:35:31.267Z,100.00
2022-10-17T06:38:35.575Z,100.00
2022-10-17T06:41:42.019Z,100.00
2022-10-17T06:44:43.497Z,100.00
2022-10-17T06:47:50.739Z,100.00
2022-10-17T06:50:52.257Z,100.00
2022-10-17T06:53:56.930Z,100.00
2022-10-17T06:56:58.430Z,100.00
2022-10-17T06:59:59.899Z,100.00
2022-10-17T07:03:01.337Z,100.00
2022-10-17T07:06:03.543Z,100.00
2022-10-17T07:09:07.030Z,100.00
2022-10-17T07:12:08.813Z,100.00
2022-10-17T07:15:10.785Z,100.00
2022-10-17T07:18:12.782Z,100.00
2022-10-17T07:21:14.396Z,100.00
2022-10-17T07:24:17.775Z,100.00
2022-10-17T07:27:19.382Z,100.00
2022-10-17T07:30:21.233Z,100.00
2022-10-17T07:33:22.865Z,100.00
2022-10-17T07:36:24.776Z,100.00
2022-10-17T07:39:30.384Z,100.00
2022-10-17T07:42:31.886Z,100.00
2022-10-17T07:45:33.482Z,100.00
2022-10-17T07:48:35.385Z,100.00
2022-10-17T07:51:37.143Z,100.00
2022-10-17T07:54:40.203Z,100.00
2022-10-17T07:57:41.763Z,100.00
2022-10-17T08:00:48.519Z,100.00
2022-10-17T08:03:50.306Z,100.00
2022-10-17T08:06:56.389Z,100.00
2022-10-17T08:10:03.898Z,99.95
2022-10-17T08:13:05.479Z,99.74
2022-10-17T08:16:09.153Z,99.38
2022-10-17T08:19:11.699Z,98.94
2022-10-17T08:22:15.504Z,98.77
2022-10-17T08:25:18.336Z,97.74
2022-10-17T08:28:20.054Z,97.24
2022-10-17T08:31:21.955Z,96.99
2022-10-17T08:34:23.751Z,97.19
2022-10-17T08:37:27.761Z,96.71
2022-10-17T08:40:33.771Z,96.53
2022-10-17T08:43:42.271Z,95.96
2022-10-17T08:46:45.391Z,96.09
2022-10-17T08:49:48.947Z,95.52
2022-10-17T08:52:54.866Z,95.08
2022-10-17T08:55:59.808Z,94.97
2022-10-17T08:59:01.516Z,95.33
2022-10-17T09:02:04.789Z,94.08
2022-10-17T09:05:25.482Z,93.42
2022-10-17T09:08:33.571Z,92.43
2022-10-17T09:11:43.441Z,93.29
2022-10-17T09:14:50.771Z,92.00
2022-10-17T09:17:54.955Z,91.83
2022-10-17T09:20:58.546Z,91.47
2022-10-17T09:24:09.238Z,90.95
2022-10-17T09:27:19.008Z,90.19
2022-10-17T09:30:44.247Z,90.69
2022-10-17T09:33:55.521Z,90.20
2022-10-17T09:36:58.503Z,90.28
2022-10-17T09:40:00.047Z,90.32
2022-10-17T09:43:05.162Z,90.83
2022-10-17T09:46:09.449Z,90.89
2022-10-17T09:49:17.486Z,90.56
2022-10-17T09:52:22.453Z,90.22
2022-10-17T09:55:30.832Z,89.28
2022-10-17T09:58:50.406Z,89.46
2022-10-17T10:02:07.147Z,87.21
2022-10-17T10:05:19.071Z,88.37
2022-10-17T10:08:21.506Z,87.71
2022-10-17T10:11:24.561Z,86.74
2022-10-17T10:14:29.232Z,87.11
2022-10-17T10:17:37.846Z,87.47
2022-10-17T10:20:39.505Z,85.72
2022-10-17T10:23:42.303Z,85.89
2022-10-17T10:26:44.590Z,85.42
2022-10-17T10:29:49.439Z,86.07
2022-10-17T10:32:52.393Z,85.30
2022-10-17T10:35:58.787Z,86.58
2022-10-17T10:39:02.587Z,86.00
2022-10-17T10:42:08.138Z,86.06
2022-10-17T10:45:29.311Z,86.06
2022-10-17T10:48:50.263Z,84.99
2022-10-17T10:51:52.319Z,84.44
2022-10-17T10:55:00.140Z,83.85
2022-10-17T10:58:03.729Z,84.63
2022-10-17T11:01:07.100Z,83.30
2022-10-17T11:04:17.629Z,84.01
2022-10-17T11:07:22.613Z,83.75
2022-10-17T11:10:28.227Z,83.54
2022-10-17T11:13:32.004Z,82.88
2022-10-17T11:16:37.186Z,83.17
2022-10-17T11:19:44.538Z,82.59
2022-10-17T11:22:48.552Z,82.81
2022-10-17T11:25:51.440Z,82.51
2022-10-17T11:28:53.835Z,82.35
2022-10-17T11:31:57.444Z,81.93
2022-10-17T11:35:05.765Z,81.35
2022-10-17T11:38:14.587Z,80.54
2022-10-17T11:41:19.610Z,81.29
2022-10-17T11:44:23.428Z,81.81
2022-10-17T11:47:30.207Z,81.17
2022-10-17T11:53:58.101Z,80.96
2022-10-17T11:57:13.889Z,81.78
2022-10-17T12:00:21.122Z,81.95
2022-10-17T12:03:49.730Z,82.28
2022-10-17T12:07:02.504Z,81.89
2022-10-17T12:10:13.568Z,82.24
2022-10-17T12:13:33.660Z,81.93
2022-10-17T12:19:43.566Z,82.57
2022-10-17T12:22:48.442Z,82.38
2022-10-17T12:25:51.833Z,82.21
2022-10-17T12:28:53.568Z,82.49
2022-10-17T12:31:55.214Z,82.92
2022-10-17T12:34:57.592Z,82.98
2022-10-17T12:38:15.136Z,82.95
2022-10-17T12:41:16.687Z,82.98
2022-10-17T12:44:34.909Z,83.13
2022-10-17T12:47:38.560Z,81.76
2022-10-17T12:51:17.647Z,80.75
2022-10-17T12:54:22.734Z,80.16
2022-10-17T12:57:27.566Z,79.86
2022-10-17T13:00:32.699Z,79.42
2022-10-17T13:03:35.853Z,79.90
2022-10-17T13:06:40.813Z,80.10
2022-10-17T13:09:44.626Z,80.41
2022-10-17T13:12:46.615Z,79.31
2022-10-17T13:15:49.009Z,79.50
2022-10-17T13:18:52.635Z,79.68
2022-10-17T13:22:01.087Z,80.08
2022-10-17T13:25:10.209Z,80.44
2022-10-17T13:28:13.662Z,79.78
2022-10-17T13:31:27.624Z,80.01
2022-10-17T13:34:29.886Z,80.98
2022-10-17T13:37:31.391Z,80.46
2022-10-17T13:40:49.033Z,80.46
2022-10-17T13:43:52.642Z,80.56
2022-10-17T13:46:57.163Z,80.95
2022-10-17T13:49:59.266Z,80.74
2022-10-17T13:53:17.843Z,81.22
2022-10-17T13:56:30.139Z,80.79
2022-10-17T13:59:34.447Z,81.05
2022-10-17T14:02:36.099Z,81.28
2022-10-17T14:05:52.536Z,81.39
2022-10-17T14:08:55.827Z,81.91
2022-10-17T14:12:01.413Z,82.25
2022-10-17T14:15:11.471Z,81.94
2022-10-17T14:18:17.283Z,81.71
2022-10-17T14:21:37.196Z,82.07
2022-10-17T14:24:43.609Z,82.68
2022-10-17T14:27:55.749Z,82.60
2022-10-17T14:31:09.204Z,82.50
2022-10-17T14:34:20.771Z,82.61
2022-10-17T14:37:28.804Z,82.21
2022-10-17T14:40:32.448Z,82.20
2022-10-17T14:43:35.681Z,82.11
2022-10-17T14:46:37.795Z,81.88
2022-10-17T14:49:40.949Z,82.27
2022-10-17T14:52:58.443Z,83.00
2022-10-17T14:56:00.835Z,83.33
2022-10-17T14:59:07.540Z,83.71
2022-10-17T15:02:13.257Z,83.75
2022-10-17T15:05:15.737Z,83.75
2022-10-17T15:08:18.207Z,84.17
2022-10-17T15:11:22.995Z,84.22
2022-10-17T15:14:28.264Z,83.63
2022-10-17T15:17:30.739Z,84.09
2022-10-17T15:20:32.967Z,83.85
2022-10-17T15:23:34.524Z,83.73
2022-10-17T15:26:36.118Z,83.85
2022-10-17T15:29:38.947Z,84.10
2022-10-17T15:32:40.973Z,84.27
2022-10-17T15:35:43.641Z,84.42
2022-10-17T15:38:45.157Z,84.28
2022-10-17T15:41:48.088Z,84.64
2022-10-17T15:44:51.354Z,84.61
2022-10-17T15:47:54.298Z,84.70
2022-10-17T15:50:56.241Z,84.60
2022-10-17T15:54:02.567Z,84.44
2022-10-17T15:57:04.328Z,84.02
2022-10-17T16:00:16.568Z,84.05
2022-10-17T16:03:18.512Z,84.62
2022-10-17T16:06:21.257Z,84.97
2022-10-17T16:09:23.116Z,84.85
2022-10-17T16:12:27.455Z,84.91
2022-10-17T16:15:30.689Z,84.82
2022-10-17T16:18:32.454Z,84.60
2022-10-17T16:21:35.343Z,84.44
2022-10-17T16:24:37.113Z,84.93
2022-10-17T16:27:39.409Z,84.82
2022-10-17T16:30:46.884Z,85.04
2022-10-17T16:33:49.170Z,85.15
2022-10-17T16:36:50.973Z,84.92
2022-10-17T16:39:53.583Z,84.94
2022-10-17T16:42:55.469Z,84.93
2022-10-17T16:45:58.362Z,85.13
2022-10-17T16:48:59.970Z,84.98
2022-10-17T16:52:01.546Z,84.96
2022-10-17T16:55:03.421Z,85.41
2022-10-17T16:58:05.113Z,85.66
2022-10-17T17:01:09.056Z,85.97
2022-10-17T17:04:10.621Z,86.17
2022-10-17T17:07:12.370Z,86.51
2022-10-17T17:10:13.934Z,86.63
2022-10-17T17:13:16.076Z,86.83
2022-10-17T17:16:21.464Z,87.15
2022-10-17T17:19:23.067Z,87.64
2022-10-17T17:22:24.599Z,88.36
2022-10-17T17:25:26.438Z,89.23
2022-10-17T17:28:28.553Z,90.69
2022-10-17T17:31:32.883Z,92.00
2022-10-17T17:34:36.567Z,93.46
2022-10-17T17:37:38.193Z,94.34
2022-10-17T17:40:48.057Z,95.38
2022-10-17T17:43:51.995Z,96.70
2022-10-17T17:46:54.814Z,96.79
2022-10-17T17:49:56.413Z,98.14
2022-10-17T17:52:58.032Z,99.02
2022-10-17T17:56:03.517Z,98.99
2022-10-17T17:59:05.833Z,99.68
2022-10-17T18:02:13.992Z,100.00
2022-10-17T18:05:15.830Z,100.00
2022-10-17T18:08:17.591Z,100.00
2022-10-17T18:11:21.967Z,100.00
2022-10-17T18:14:24.045Z,100.00
2022-10-17T18:17:27.968Z,100.00
2022-10-17T18:20:30.074Z,100.00
2022-10-17T18:23:31.538Z,100.00
2022-10-17T18:26:33.681Z,100.00
2022-10-17T18:29:35.957Z,100.00
2022-10-17T18:32:39.092Z,100.00
2022-10-17T18:35:40.698Z,100.00
2022-10-17T18:38:42.787Z,100.00
2022-10-17T18:41:44.583Z,100.00
2022-10-17T18:44:47.688Z,100.00
2022-10-17T18:47:52.834Z,100.00
2022-10-17T18:50:54.720Z,100.00
2022-10-17T18:53:58.662Z,100.00
2022-10-17T18:57:00.621Z,100.00
2022-10-17T19:00:02.342Z,100.00
2022-10-17T19:03:05.386Z,100.00
2022-10-17T19:06:08.582Z,100.00
2022-10-17T19:09:11.959Z,100.00
2022-10-17T19:12:13.529Z,100.00
2022-10-17T19:15:15.434Z,100.00
2022-10-17T19:18:18.387Z,100.00
2022-10-17T19:21:21.930Z,100.00
2022-10-17T19:24:25.071Z,100.00
2022-10-17T19:27:26.668Z,100.00
2022-10-17T19:30:28.661Z,100.00
2022-10-17T19:33:32.875Z,100.00
2022-10-17T19:36:34.855Z,100.00
2022-10-17T19:39:36.966Z,100.00
2022-10-17T19:42:38.613Z,100.00
2022-10-17T19:45:40.284Z,100.00
2022-10-17T19:48:44.145Z,100.00
2022-10-17T19:51:45.957Z,100.00
2022-10-17T19:54:47.658Z,100.00
2022-10-17T19:57:49.471Z,100.00
2022-10-17T20:00:52.560Z,100.00
2022-10-17T20:03:55.996Z,100.00
2022-10-17T20:07:00.966Z,100.00
2022-10-17T20:10:03.290Z,100.00
2022-10-17T20:13:05.097Z,100.00
2022-10-17T20:16:07.833Z,100.00
2022-10-17T20:19:12.275Z,100.00
2022-10-17T20:22:14.092Z,100.00
2022-10-17T20:25:16.177Z,100.00
2022-10-17T20:28:17.949Z,100.00
2022-10-17T20:31:19.818Z,100.00
2022-10-17T20:34:23.232Z,100.00
2022-10-17T20:37:25.418Z,100.00
2022-10-17T20:40:34.992Z,100.00
2022-10-17T20:43:37.691Z,100.00
2022-10-17T20:46:44.789Z,100.00
2022-10-17T20:49:51.800Z,100.00
2022-10-17T20:53:05.391Z,100.00
2022-10-17T20:56:21.073Z,100.00
2022-10-17T20:59:22.967Z,100.00
2022-10-17T21:02:24.753Z,100.00
2022-10-17T21:05:28.094Z,100.00
2022-10-17T21:08:29.745Z,100.00
2022-10-17T21:11:31.524Z,100.00
2022-10-17T21:14:33.523Z,100.00
2022-10-17T21:17:35.073Z,100.00
2022-10-17T21:20:38.115Z,100.00
2022-10-17T21:23:40.476Z,100.00
2022-10-17T21:26:42.765Z,100.00
2022-10-17T21:29:47.819Z,100.00
2022-10-17T21:32:53.791Z,100.00
2022-10-17T21:35:57.051Z,100.00
2022-10-17T21:38:58.755Z,100.00
2022-10-17T21:42:00.395Z,100.00
2022-10-17T21:45:04.699Z,100.00
2022-10-17T21:48:13.146Z,100.00
2022-10-17T21:51:17.127Z,100.00
2022-10-17T21:54:19.199Z,100.00
2022-10-17T21:57:20.891Z,100.00
2022-10-17T22:00:22.473Z,100.00
2022-10-17T22:03:24.629Z,100.00
2022-10-17T22:06:43.991Z,100.00
2022-10-17T22:09:45.656Z,100.00
2022-10-17T22:12:47.069Z,100.00
2022-10-17T22:15:48.571Z,100.00
2022-10-17T22:18:50.306Z,100.00
2022-10-17T22:21:54.051Z,100.00
2022-10-17T22:24:55.849Z,100.00
2022-10-17T22:27:57.434Z,100.00
2022-10-17T22:30:58.968Z,100.00
2022-10-17T22:34:00.664Z,100.00
2022-10-17T22:37:03.679Z,100.00
2022-10-17T22:40:06.194Z,100.00
2022-10-17T22:43:07.658Z,100.00
2022-10-17T22:46:10.112Z,100.00
2022-10-17T22:49:11.685Z,100.00
2022-10-17T22:52:14.504Z,100.00
2022-10-17T22:55:16.140Z,100.00
2022-10-17T22:58:17.727Z,100.00
2022-10-17T23:01:20.283Z,100.00
2022-10-17T23:04:21.771Z,100.00
2022-10-17T23:07:24.882Z,100.00
2022-10-17T23:10:26.329Z,100.00
2022-10-17T23:13:29.092Z,100.00
2022-10-17T23:16:30.556Z,100.00
2022-10-17T23:19:32.523Z,100.00
2022-10-17T23:22:35.384Z,100.00
2022-10-17T23:25:37.038Z,100.00
2022-10-17T23:28:38.772Z,100.00
2022-10-17T23:31:51.065Z,100.00
2022-10-17T23:34:53.291Z,100.00
2022-10-17T23:37:56.383Z,100.00
2022-10-17T23:40:57.971Z,100.00
2022-10-17T23:43:59.631Z,100.00
2022-10-17T23:47:01.286Z,100.00
2022-10-17T23:50:03.035Z,100.00
2022-10-17T23:53:05.990Z,100.00
2022-10-17T23:56:08.379Z,100.00
2022-10-17T23:59:10.146Z,100.00
